Time;durP1;ratioP1;P1;durP2;ratioP2;P2;SDS_P1;SDS_P2;PMS_P1;PMS_P2;Temp;Humidity;BMP_temperature;BMP_pressure;BME280_temperature;BME280_humidity;BME280_pressure;Samples;Min_cycle;Max_cycle;Signal;HPM_P1;HPM_P2
2022/09/19 00:01:55;;;;;;;9.63;2.03;;;17.10;59.80;;;;;;5110574;28;20210;-92
2022/09/19 00:04:26;;;;;;;4.47;1.50;;;17.10;60.00;;;;;;5096883;28;20212;-93
2022/09/19 00:07:01;;;;;;;6.77;1.70;;;17.10;59.90;;;;;;5090701;28;20226;-92
2022/09/19 00:09:31;;;;;;;7.87;2.30;;;17.10;60.00;;;;;;5100757;28;20230;-93
2022/09/19 00:12:01;;;;;;;4.80;1.77;;;17.10;60.10;;;;;;5100468;28;20191;-92
2022/09/19 00:14:38;;;;;;;5.60;1.67;;;17.10;60.10;;;;;;5094969;28;20206;-92
2022/09/19 00:17:10;;;;;;;6.30;1.60;;;17.10;60.30;;;;;;5095588;28;20268;-92
2022/09/19 00:19:39;;;;;;;5.37;1.53;;;17.10;60.10;;;;;;5095985;28;20206;-92
2022/09/19 00:22:09;;;;;;;6.90;2.10;;;17.10;60.10;;;;;;5089958;28;20203;-94
2022/09/19 00:24:46;;;;;;;5.07;1.77;;;17.10;60.10;;;;;;5083164;28;20222;-91
2022/09/19 00:27:19;;;;;;;6.37;1.83;;;17.10;60.20;;;;;;5091197;28;20218;-93
2022/09/19 00:32:31;;;;;;;7.40;2.60;;;17.00;60.20;;;;;;5079183;28;20217;-93
2022/09/19 00:34:59;;;;;;;6.83;1.93;;;17.00;60.20;;;;;;5098850;28;20196;-92
2022/09/19 00:37:27;;;;;;;8.63;2.60;;;17.00;60.50;;;;;;5093599;28;20203;-92
2022/09/19 00:39:54;;;;;;;10.73;3.13;;;17.00;60.50;;;;;;5093225;28;20245;-92
2022/09/19 00:42:28;;;;;;;9.73;2.83;;;16.90;60.50;;;;;;5095990;28;20231;-92
2022/09/19 00:45:03;;;;;;;8.13;2.27;;;16.90;60.70;;;;;;5095197;28;20205;-92
2022/09/19 00:47:36;;;;;;;7.83;2.27;;;16.90;60.70;;;;;;5089367;28;20786;-91
2022/09/19 00:50:11;;;;;;;10.43;2.97;;;16.90;60.50;;;;;;5099050;28;20202;-92
2022/09/19 00:52:47;;;;;;;8.57;2.43;;;16.90;60.50;;;;;;5098675;28;20198;-92
2022/09/19 00:55:17;;;;;;;11.50;2.80;;;16.90;60.60;;;;;;5100136;28;20201;-91
2022/09/19 00:58:02;;;;;;;7.13;1.90;;;16.80;60.60;;;;;;5090221;28;20209;-91
2022/09/19 01:00:30;;;;;;;7.83;2.30;;;16.80;60.80;;;;;;5094648;28;20209;-92
2022/09/19 01:02:57;;;;;;;9.80;2.30;;;16.80;60.60;;;;;;5091693;28;20198;-92
2022/09/19 01:05:35;;;;;;;11.83;2.43;;;16.80;60.60;;;;;;5097016;28;20256;-91
2022/09/19 01:08:33;;;;;;;7.97;2.23;;;16.70;60.70;;;;;;5099928;28;20218;-93
2022/09/19 01:11:38;;;;;;;13.80;2.43;;;16.70;61.00;;;;;;5098545;28;20203;-92
2022/09/19 01:14:25;;;;;;;6.10;1.67;;;16.60;60.80;;;;;;5091784;28;21075;-92
2022/09/19 01:17:04;;;;;;;5.60;1.43;;;16.60;61.00;;;;;;5084510;28;20203;-92
2022/09/19 01:19:49;;;;;;;4.80;1.73;;;16.60;60.90;;;;;;5083195;28;20207;-91
2022/09/19 01:22:27;;;;;;;9.80;2.57;;;16.50;61.10;;;;;;5096739;28;20213;-92
2022/09/19 01:24:59;;;;;;;11.93;2.83;;;16.50;61.00;;;;;;5093426;28;20202;-91
2022/09/19 01:28:13;;;;;;;6.33;1.60;;;16.40;61.10;;;;;;5096860;28;20222;-92
2022/09/19 01:31:16;;;;;;;8.63;2.30;;;16.40;61.40;;;;;;5034239;28;20203;-92
2022/09/19 01:33:38;;;;;;;6.83;1.57;;;16.30;61.10;;;;;;5080651;28;20628;-93
2022/09/19 01:36:07;;;;;;;5.57;1.90;;;16.20;61.00;;;;;;5093884;28;20209;-93
2022/09/19 01:38:39;;;;;;;5.83;1.13;;;16.20;61.10;;;;;;5093341;28;20415;-93
2022/09/19 01:41:11;;;;;;;9.47;3.00;;;16.20;61.30;;;;;;5082547;28;20208;-92
2022/09/19 01:43:46;;;;;;;7.47;1.80;;;16.20;61.60;;;;;;5093672;28;20234;-92
2022/09/19 01:46:37;;;;;;;12.97;3.17;;;16.10;61.50;;;;;;5075586;28;20291;-91
2022/09/19 01:49:12;;;;;;;8.30;2.10;;;16.10;61.50;;;;;;5091044;28;20665;-93
2022/09/19 01:51:45;;;;;;;9.33;2.60;;;16.00;61.40;;;;;;5094032;28;20210;-91
2022/09/19 01:54:31;;;;;;;8.37;2.63;;;16.00;61.50;;;;;;5096496;28;20616;-92
2022/09/19 01:57:09;;;;;;;12.13;2.70;;;16.00;61.80;;;;;;5094621;28;20681;-92
2022/09/19 01:59:47;;;;;;;9.47;2.87;;;15.90;61.90;;;;;;5091487;28;20225;-92
2022/09/19 02:02:27;;;;;;;9.03;2.63;;;15.90;62.00;;;;;;5093975;28;20234;-91
2022/09/19 02:05:03;;;;;;;12.40;2.57;;;15.90;62.20;;;;;;5094748;28;20205;-91
2022/09/19 02:07:44;;;;;;;8.70;2.50;;;15.80;62.00;;;;;;5095277;28;20285;-93
2022/09/19 02:10:44;;;;;;;13.30;3.23;;;15.80;62.20;;;;;;5097777;28;20206;-92
2022/09/19 02:13:13;;;;;;;11.73;3.33;;;15.80;62.30;;;;;;5092688;28;20203;-92
2022/09/19 02:15:47;;;;;;;14.40;3.67;;;15.70;62.20;;;;;;5091783;28;20259;-93
2022/09/19 02:18:24;;;;;;;8.37;1.63;;;15.60;62.50;;;;;;5098304;28;20203;-92
2022/09/19 02:20:56;;;;;;;9.20;2.80;;;15.60;62.80;;;;;;5083404;28;20241;-92
2022/09/19 02:23:28;;;;;;;7.83;2.00;;;15.60;62.60;;;;;;5100956;28;20222;-92
2022/09/19 02:26:01;;;;;;;12.07;2.80;;;15.60;62.70;;;;;;5088702;28;20228;-93
2022/09/19 02:28:32;;;;;;;4.80;1.63;;;15.50;63.00;;;;;;5100157;28;20237;-91
2022/09/19 02:31:01;;;;;;;4.83;1.57;;;15.40;63.00;;;;;;5098084;28;20203;-91
2022/09/19 02:33:34;;;;;;;7.73;1.70;;;15.40;63.00;;;;;;5098249;28;20202;-92
2022/09/19 02:36:16;;;;;;;7.33;2.10;;;15.40;63.10;;;;;;5086641;28;20207;-95
2022/09/19 02:38:50;;;;;;;4.53;1.60;;;15.40;63.60;;;;;;5099175;28;20205;-93
2022/09/19 02:41:25;;;;;;;9.67;2.47;;;15.40;63.60;;;;;;5098655;28;20233;-92
2022/09/19 02:44:00;;;;;;;6.17;1.73;;;15.30;63.90;;;;;;5094113;28;20202;-91
2022/09/19 02:46:35;;;;;;;8.67;2.17;;;15.30;63.80;;;;;;5092118;28;20694;-91
2022/09/19 02:49:09;;;;;;;11.63;2.70;;;15.30;64.10;;;;;;5083289;28;20235;-91
2022/09/19 02:51:41;;;;;;;8.57;2.70;;;15.20;64.20;;;;;;5083608;28;20276;-94
2022/09/19 02:54:12;;;;;;;13.80;3.20;;;15.30;64.30;;;;;;5078552;28;20213;-96
2022/09/19 02:56:42;;;;;;;13.87;3.60;;;15.30;64.40;;;;;;5093109;28;20226;-92
2022/09/19 02:59:14;;;;;;;20.27;4.73;;;15.20;64.40;;;;;;5094731;28;20235;-95
2022/09/19 03:01:46;;;;;;;11.63;3.27;;;15.20;64.50;;;;;;5096247;28;20206;-95
2022/09/19 03:04:23;;;;;;;11.83;3.17;;;15.20;64.40;;;;;;5096464;28;20202;-92
2022/09/19 03:07:08;;;;;;;7.37;1.93;;;15.20;64.50;;;;;;5078585;28;20253;-92
2022/09/19 03:09:36;;;;;;;8.40;1.67;;;15.20;64.40;;;;;;5095270;28;20217;-91
2022/09/19 03:12:08;;;;;;;8.63;2.00;;;15.20;64.20;;;;;;5095245;28;20233;-93
2022/09/19 03:14:37;;;;;;;8.53;2.37;;;15.20;64.50;;;;;;5084519;28;20210;-90
2022/09/19 03:17:07;;;;;;;14.20;3.77;;;15.20;64.50;;;;;;5100434;28;20213;-90
2022/09/19 03:19:41;;;;;;;5.60;1.80;;;15.20;64.60;;;;;;5094144;28;20279;-91
2022/09/19 03:22:08;;;;;;;13.33;3.67;;;15.20;64.80;;;;;;5095343;28;20271;-91
2022/09/19 03:24:42;;;;;;;9.77;2.67;;;15.10;65.10;;;;;;5095910;28;20198;-93
2022/09/19 03:27:14;;;;;;;9.60;1.70;;;15.10;64.40;;;;;;5102464;28;20240;-91
2022/09/19 03:29:42;;;;;;;11.90;3.13;;;15.10;64.20;;;;;;5095736;28;20196;-92
2022/09/19 03:32:11;;;;;;;9.77;3.10;;;15.00;64.20;;;;;;5098047;28;20234;-91
2022/09/19 03:34:40;;;;;;;15.50;3.60;;;15.10;64.30;;;;;;5092335;28;20191;-91
2022/09/19 03:37:08;;;;;;;9.30;2.53;;;15.00;64.50;;;;;;5100296;28;20274;-91
2022/09/19 03:39:37;;;;;;;8.60;2.63;;;15.00;64.30;;;;;;5097369;28;20214;-92
2022/09/19 03:42:06;;;;;;;6.10;1.70;;;15.00;64.50;;;;;;5086127;28;20232;-92
2022/09/19 03:44:33;;;;;;;7.03;2.10;;;15.00;64.90;;;;;;5099165;28;20188;-92
2022/09/19 03:47:01;;;;;;;13.07;3.30;;;14.90;64.70;;;;;;5113528;28;20218;-91
2022/09/19 03:49:28;;;;;;;8.23;1.80;;;14.90;64.80;;;;;;5113637;28;20201;-90
2022/09/19 03:52:04;;;;;;;7.13;1.97;;;14.80;64.70;;;;;;5104842;28;20277;-91
2022/09/19 03:54:34;;;;;;;5.83;1.77;;;14.80;65.20;;;;;;5098590;28;20206;-91
2022/09/19 03:57:07;;;;;;;7.20;1.80;;;14.80;64.90;;;;;;5090357;28;20285;-91
2022/09/19 03:59:41;;;;;;;6.20;1.63;;;14.70;65.30;;;;;;5076975;28;20206;-92
2022/09/19 04:02:08;;;;;;;3.23;1.40;;;14.70;65.70;;;;;;5078058;28;20291;-91
2022/09/19 04:04:36;;;;;;;4.17;1.63;;;14.70;65.60;;;;;;5085050;28;20618;-89
2022/09/19 04:07:06;;;;;;;11.83;2.90;;;14.70;65.50;;;;;;5077482;28;20230;-90
2022/09/19 04:09:33;;;;;;;6.77;2.03;;;14.70;65.70;;;;;;5096575;28;20222;-90
2022/09/19 04:12:04;;;;;;;5.37;1.70;;;14.70;65.60;;;;;;5096442;28;20206;-90
2022/09/19 04:14:32;;;;;;;6.37;1.50;;;14.60;65.60;;;;;;5095269;28;20195;-91
2022/09/19 04:17:00;;;;;;;11.87;3.50;;;14.60;65.60;;;;;;5096547;28;20210;-91
2022/09/19 04:19:29;;;;;;;16.83;4.37;;;14.60;65.80;;;;;;5086762;28;20244;-92
2022/09/19 04:22:01;;;;;;;7.10;1.93;;;14.60;66.90;;;;;;5095162;28;20487;-90
2022/09/19 04:24:29;;;;;;;13.93;3.33;;;14.60;66.10;;;;;;5089019;28;20199;-92
2022/09/19 04:27:06;;;;;;;10.20;2.63;;;14.60;66.40;;;;;;5093491;28;20311;-90
2022/09/19 04:29:35;;;;;;;16.57;4.00;;;14.60;66.50;;;;;;5089927;28;20209;-93
2022/09/19 04:32:03;;;;;;;10.17;2.70;;;14.70;66.70;;;;;;5091930;28;20662;-91
2022/09/19 04:34:30;;;;;;;9.20;2.43;;;14.70;66.70;;;;;;5091825;28;20560;-92
2022/09/19 04:36:58;;;;;;;10.00;2.90;;;14.70;66.90;;;;;;5096407;28;20202;-92
2022/09/19 04:39:25;;;;;;;6.30;1.90;;;14.70;66.90;;;;;;5093169;28;20220;-93
2022/09/19 04:41:54;;;;;;;9.70;2.13;;;14.70;67.00;;;;;;5083263;28;20243;-91
2022/09/19 04:44:22;;;;;;;7.07;1.60;;;14.70;67.10;;;;;;5079841;28;20287;-89
2022/09/19 04:46:51;;;;;;;4.50;1.57;;;14.70;67.00;;;;;;5094881;28;20226;-91
2022/09/19 04:49:18;;;;;;;7.47;2.10;;;14.70;67.10;;;;;;5092262;28;20222;-92
2022/09/19 04:51:46;;;;;;;4.70;1.23;;;14.80;67.10;;;;;;5088760;28;20321;-91
2022/09/19 04:54:16;;;;;;;13.53;2.83;;;14.80;67.30;;;;;;5083376;28;20203;-91
2022/09/19 04:56:44;;;;;;;4.77;1.70;;;14.80;67.40;;;;;;5094190;28;20227;-91
2022/09/19 04:59:15;;;;;;;10.53;2.73;;;14.80;67.40;;;;;;5088175;28;20217;-91
2022/09/19 05:01:44;;;;;;;10.33;2.57;;;14.80;67.60;;;;;;5091125;28;20577;-91
2022/09/19 05:04:18;;;;;;;21.17;4.00;;;14.80;67.50;;;;;;5093055;28;20199;-90
2022/09/19 05:06:46;;;;;;;11.40;2.83;;;14.80;67.60;;;;;;5086629;28;20214;-92
2022/09/19 05:09:13;;;;;;;8.63;2.87;;;14.90;67.80;;;;;;5092674;28;20308;-91
2022/09/19 05:11:46;;;;;;;9.17;2.57;;;14.90;67.80;;;;;;5080657;28;20195;-93
2022/09/19 05:14:17;;;;;;;8.07;2.60;;;14.90;67.80;;;;;;5095279;28;20696;-92
2022/09/19 05:16:50;;;;;;;8.17;2.40;;;14.90;67.90;;;;;;5092139;28;20206;-91
2022/09/19 05:19:21;;;;;;;6.17;1.80;;;15.00;67.90;;;;;;5085800;28;20213;-91
2022/09/19 05:21:49;;;;;;;7.77;2.57;;;15.00;67.90;;;;;;5091729;28;20201;-91
2022/09/19 05:24:18;;;;;;;11.60;2.97;;;15.00;67.90;;;;;;5091673;28;20207;-91
2022/09/19 05:26:47;;;;;;;7.67;2.40;;;15.10;68.00;;;;;;5092889;28;20725;-92
2022/09/19 05:29:15;;;;;;;7.57;2.50;;;15.10;68.10;;;;;;5094652;28;20208;-92
2022/09/19 05:31:45;;;;;;;12.63;2.90;;;15.10;68.10;;;;;;5093115;28;20234;-90
2022/09/19 05:34:13;;;;;;;8.97;2.47;;;15.20;68.10;;;;;;5093832;28;20249;-92
2022/09/19 05:36:40;;;;;;;14.40;3.93;;;15.20;68.10;;;;;;5091171;28;20251;-90
2022/09/19 05:39:07;;;;;;;11.47;3.07;;;15.20;68.10;;;;;;5083227;28;20621;-90
2022/09/19 05:41:38;;;;;;;7.07;2.30;;;15.20;68.10;;;;;;5080552;28;20228;-91
2022/09/19 05:44:06;;;;;;;14.60;2.97;;;15.30;68.40;;;;;;5075804;28;21145;-90
2022/09/19 05:46:35;;;;;;;5.77;1.83;;;15.30;68.20;;;;;;5096959;28;20238;-90
2022/09/19 05:49:02;;;;;;;17.13;4.57;;;15.30;68.70;;;;;;5099094;28;20295;-91
2022/09/19 05:51:31;;;;;;;11.67;4.07;;;15.40;68.60;;;;;;5097928;28;20202;-91
2022/09/19 05:53:57;;;;;;;8.07;2.67;;;15.40;68.80;;;;;;5097382;28;20232;-93
2022/09/19 05:56:25;;;;;;;10.47;2.90;;;15.40;68.80;;;;;;5092677;28;20223;-93
2022/09/19 05:58:56;;;;;;;9.40;2.30;;;15.50;69.20;;;;;;5088673;28;20231;-91
2022/09/19 06:01:23;;;;;;;9.77;2.63;;;15.50;69.20;;;;;;5091593;28;20208;-90
2022/09/19 06:03:53;;;;;;;9.30;2.57;;;15.50;69.00;;;;;;5102267;28;20253;-93
2022/09/19 06:06:23;;;;;;;12.97;2.73;;;15.60;69.60;;;;;;5100829;28;20251;-93
2022/09/19 06:08:57;;;;;;;6.87;1.90;;;15.60;70.40;;;;;;5096065;28;20240;-93
2022/09/19 06:11:25;;;;;;;15.63;4.20;;;15.60;70.00;;;;;;5096577;28;20225;-92
2022/09/19 06:16:46;;;;;;;8.83;2.10;;;15.70;69.60;;;;;;5063186;28;20204;-95
2022/09/19 06:19:21;;;;;;;12.07;3.10;;;15.80;69.70;;;;;;5104008;28;20218;-90
2022/09/19 06:21:51;;;;;;;6.77;2.03;;;15.80;70.20;;;;;;5111112;28;20194;-92
2022/09/19 06:24:18;;;;;;;5.70;1.50;;;15.80;70.00;;;;;;5106481;28;20224;-92
2022/09/19 06:26:49;;;;;;;5.23;1.67;;;15.80;69.80;;;;;;5103217;28;20628;-92
2022/09/19 06:29:17;;;;;;;9.93;2.27;;;15.90;70.30;;;;;;5098932;28;20697;-92
2022/09/19 06:31:45;;;;;;;10.67;2.77;;;15.90;70.30;;;;;;5101929;28;20238;-90
2022/09/19 06:34:15;;;;;;;8.43;2.27;;;16.00;70.30;;;;;;5095618;28;20237;-94
2022/09/19 06:36:44;;;;;;;9.00;2.17;;;16.00;70.40;;;;;;5097712;28;20202;-91
2022/09/19 06:39:17;;;;;;;9.37;2.23;;;16.00;70.30;;;;;;5095807;28;20201;-92
2022/09/19 06:41:47;;;;;;;11.57;3.13;;;16.10;70.50;;;;;;5096182;28;20192;-92
2022/09/19 06:44:25;;;;;;;13.23;3.63;;;16.10;70.60;;;;;;5095932;28;20289;-91
2022/09/19 06:47:14;;;;;;;11.33;3.07;;;16.10;70.90;;;;;;5096817;28;20204;-90
2022/09/19 06:49:44;;;;;;;8.60;2.40;;;16.20;70.90;;;;;;5090154;28;20245;-92
2022/09/19 06:52:19;;;;;;;6.33;2.20;;;16.20;70.30;;;;;;5096799;28;20221;-91
2022/09/19 06:54:46;;;;;;;11.37;2.73;;;16.20;70.30;;;;;;5091585;28;20203;-92
2022/09/19 06:57:15;;;;;;;10.93;3.47;;;16.30;70.20;;;;;;5090891;28;20219;-92
2022/09/19 06:59:44;;;;;;;13.67;3.60;;;16.30;70.40;;;;;;5099637;28;20253;-93
2022/09/19 07:02:11;;;;;;;11.33;3.70;;;16.40;70.60;;;;;;5096186;28;20202;-92
2022/09/19 07:04:44;;;;;;;11.90;3.87;;;16.40;70.60;;;;;;5095387;28;20232;-93
2022/09/19 07:07:17;;;;;;;10.37;3.57;;;16.40;70.90;;;;;;5095302;28;20205;-91
2022/09/19 07:09:45;;;;;;;8.57;2.83;;;16.40;70.60;;;;;;5089356;28;20227;-93
2022/09/19 07:12:14;;;;;;;9.37;3.37;;;16.50;70.40;;;;;;5090370;28;20676;-92
2022/09/19 07:14:45;;;;;;;10.77;3.17;;;16.60;70.70;;;;;;5088942;28;20265;-92
2022/09/19 07:17:16;;;;;;;12.40;4.33;;;16.60;70.80;;;;;;5084906;28;20216;-92
2022/09/19 07:19:45;;;;;;;8.50;2.70;;;16.60;71.00;;;;;;5094771;28;20298;-91
2022/09/19 07:22:16;;;;;;;11.80;3.13;;;16.70;70.80;;;;;;5089086;28;20201;-92
2022/09/19 07:24:43;;;;;;;5.00;2.07;;;16.70;70.70;;;;;;5093569;28;20195;-92
2022/09/19 07:27:15;;;;;;;6.87;2.53;;;16.70;70.90;;;;;;5090260;28;20202;-91
2022/09/19 07:29:43;;;;;;;5.60;2.23;;;16.80;71.80;;;;;;5094681;28;20237;-92
2022/09/19 07:32:13;;;;;;;11.67;3.40;;;16.80;71.50;;;;;;5091518;28;20209;-91
2022/09/19 07:34:40;;;;;;;16.10;4.50;;;16.90;71.80;;;;;;5086026;28;20229;-92
2022/09/19 07:37:34;;;;;;;10.97;3.43;;;16.90;71.40;;;;;;5096398;28;20667;-92
2022/09/19 07:40:02;;;;;;;8.63;3.17;;;16.90;72.40;;;;;;5108474;28;20204;-93
2022/09/19 07:42:29;;;;;;;13.07;4.27;;;17.00;71.50;;;;;;5101924;28;20201;-93
2022/09/19 07:44:57;;;;;;;9.20;2.23;;;17.00;71.00;;;;;;5092541;28;20203;-93
2022/09/19 07:47:29;;;;;;;9.57;2.77;;;17.00;70.10;;;;;;5090387;28;20201;-92
2022/09/19 07:49:57;;;;;;;6.70;2.40;;;17.00;70.10;;;;;;5095605;28;20203;-92
2022/09/19 07:52:29;;;;;;;8.50;2.97;;;17.10;70.00;;;;;;5092266;28;20229;-91
2022/09/19 07:54:57;;;;;;;7.53;2.20;;;17.10;69.90;;;;;;5092901;28;20223;-92
2022/09/19 07:57:26;;;;;;;8.53;2.90;;;17.10;69.60;;;;;;5093564;28;20195;-90
2022/09/19 07:59:58;;;;;;;16.17;4.70;;;17.20;70.00;;;;;;5094136;28;20198;-94
2022/09/19 08:02:27;;;;;;;9.33;2.73;;;17.20;69.80;;;;;;5092211;28;20260;-91
2022/09/19 08:04:54;;;;;;;6.30;2.43;;;17.20;69.40;;;;;;5084641;28;20545;-92
2022/09/19 08:07:23;;;;;;;10.87;2.53;;;17.30;69.20;;;;;;5095333;28;20338;-91
2022/09/19 08:09:59;;;;;;;6.23;2.17;;;17.30;69.20;;;;;;5093988;28;20278;-92
2022/09/19 08:12:27;;;;;;;8.40;2.00;;;17.40;69.40;;;;;;5094424;28;20244;-93
2022/09/19 08:14:55;;;;;;;7.43;2.43;;;17.40;69.00;;;;;;5087583;28;20214;-91
2022/09/19 08:17:24;;;;;;;5.27;2.20;;;17.40;68.60;;;;;;5093732;28;20202;-91
2022/09/19 08:19:51;;;;;;;7.53;2.30;;;17.50;68.80;;;;;;5093181;28;20329;-92
2022/09/19 08:22:19;;;;;;;9.10;2.13;;;17.50;68.20;;;;;;5094295;28;20700;-91
2022/09/19 08:24:55;;;;;;;8.10;1.90;;;17.60;68.50;;;;;;5094590;28;20328;-92
2022/09/19 08:27:26;;;;;;;6.90;2.43;;;17.70;68.70;;;;;;5096409;28;20285;-92
2022/09/19 08:29:55;;;;;;;7.70;1.80;;;17.80;67.60;;;;;;5093531;28;20235;-92
2022/09/19 08:32:22;;;;;;;9.83;2.33;;;17.80;67.60;;;;;;5096711;28;20206;-93
2022/09/19 08:34:50;;;;;;;8.17;2.37;;;17.90;67.40;;;;;;5101102;28;20222;-93
2022/09/19 08:37:21;;;;;;;8.93;2.40;;;18.00;67.30;;;;;;5100416;28;20232;-93
2022/09/19 08:42:38;;;;;;;5.60;1.83;;;18.20;66.70;;;;;;5081496;28;20205;-93
2022/09/19 08:45:18;;;;;;;6.47;2.13;;;18.30;67.10;;;;;;5104950;28;20166;-91
2022/09/19 08:48:02;;;;;;;6.70;1.60;;;18.50;67.00;;;;;;5099915;28;20224;-95
2022/09/19 08:50:35;;;;;;;9.23;2.47;;;18.60;65.90;;;;;;5096468;28;20224;-92
2022/09/19 08:53:16;;;;;;;8.40;2.53;;;18.80;66.40;;;;;;5099640;28;20294;-93
2022/09/19 08:55:45;;;;;;;9.73;1.93;;;19.10;65.80;;;;;;5098051;28;20194;-92
2022/09/19 08:58:19;;;;;;;9.83;2.20;;;19.20;64.90;;;;;;5097405;28;20267;-92
2022/09/19 09:00:50;;;;;;;5.50;1.30;;;19.50;64.60;;;;;;5098744;28;20199;-94
2022/09/19 09:03:22;;;;;;;7.40;1.87;;;19.70;64.10;;;;;;5105702;28;20222;-92
2022/09/19 09:05:57;;;;;;;5.70;1.20;;;19.90;64.00;;;;;;5103388;28;20218;-93
2022/09/19 09:08:44;;;;;;;4.07;1.43;;;20.10;64.20;;;;;;5095769;28;20764;-91
2022/09/19 09:11:20;;;;;;;9.30;2.30;;;20.30;62.80;;;;;;5096609;28;20250;-92
2022/09/19 09:13:58;;;;;;;5.80;2.40;;;20.50;62.80;;;;;;5097876;28;20207;-93
2022/09/19 09:16:39;;;;;;;9.37;2.13;;;20.60;63.00;;;;;;5094588;28;20207;-91
2022/09/19 09:19:32;;;;;;;8.57;2.43;;;20.80;59.90;;;;;;5095744;28;20203;-92
2022/09/19 09:22:09;;;;;;;16.20;3.50;;;20.90;59.40;;;;;;5098656;28;20202;-91
2022/09/19 09:24:40;;;;;;;7.17;1.87;;;21.00;59.30;;;;;;5099070;28;20268;-94
2022/09/19 09:27:14;;;;;;;7.20;2.17;;;21.10;60.00;;;;;;5097550;28;20204;-90
2022/09/19 09:29:46;;;;;;;4.57;1.87;;;21.10;58.90;;;;;;5099299;28;20837;-92
2022/09/19 09:32:20;;;;;;;8.10;2.03;;;21.00;59.50;;;;;;5099371;28;20269;-95
2022/09/19 09:35:32;;;;;;;5.90;1.70;;;21.00;59.50;;;;;;5101319;28;20697;-89
2022/09/19 09:38:06;;;;;;;6.80;1.50;;;21.00;59.10;;;;;;5099593;28;20255;-93
2022/09/19 09:43:45;;;;;;;21.03;3.00;;;21.10;58.60;;;;;;5101356;28;20200;-96
2022/09/19 09:46:22;;;;;;;10.17;2.90;;;21.10;58.70;;;;;;5100758;28;20202;-92
2022/09/19 09:48:52;;;;;;;6.77;2.30;;;21.20;58.80;;;;;;5097493;28;20222;-92
2022/09/19 09:51:32;;;;;;;8.67;2.70;;;21.20;59.10;;;;;;5098912;28;20211;-94
2022/09/19 09:57:21;;;;;;;6.10;2.17;;;21.50;57.50;;;;;;5082811;28;20646;-94
2022/09/19 10:05:39;;;;;;;7.60;2.10;;;21.90;57.10;;;;;;5085549;28;20202;-93
2022/09/19 10:08:18;;;;;;;7.17;1.67;;;22.00;57.80;;;;;;5078831;28;20229;-93
2022/09/19 10:11:17;;;;;;;6.13;2.23;;;22.10;56.90;;;;;;5076956;28;20217;-94
2022/09/19 10:14:01;;;;;;;3.67;1.30;;;22.20;56.60;;;;;;5079754;28;20193;-93
2022/09/19 10:16:32;;;;;;;8.03;1.93;;;22.40;57.40;;;;;;5094581;28;20691;-91
2022/09/19 10:19:25;;;;;;;9.17;3.27;;;22.50;57.30;;;;;;5097933;28;20213;-93
2022/09/19 10:22:01;;;;;;;4.93;1.77;;;22.60;55.50;;;;;;5097657;28;20208;-93
2022/09/19 10:24:55;;;;;;;5.80;1.30;;;22.80;55.50;;;;;;5100156;28;20221;-94
2022/09/19 10:27:26;;;;;;;5.50;1.73;;;23.00;55.40;;;;;;5099762;28;20189;-94
2022/09/19 10:29:59;;;;;;;3.53;1.27;;;23.10;56.10;;;;;;5099877;28;20215;-93
2022/09/19 10:32:35;;;;;;;4.30;1.50;;;23.30;56.10;;;;;;5083217;28;20212;-94
2022/09/19 10:35:25;;;;;;;6.13;1.67;;;23.40;55.80;;;;;;5077670;28;20227;-93
2022/09/19 10:37:54;;;;;;;2.83;1.27;;;23.60;55.20;;;;;;5079840;28;20191;-92
2022/09/19 10:40:21;;;;;;;5.20;2.20;;;23.80;55.80;;;;;;5081188;28;20188;-91
2022/09/19 10:42:48;;;;;;;5.33;1.47;;;23.90;55.30;;;;;;5081941;28;20208;-94
2022/09/19 10:45:25;;;;;;;3.60;1.57;;;24.10;55.60;;;;;;5080567;28;20203;-93
2022/09/19 10:47:59;;;;;;;6.60;2.07;;;24.20;53.60;;;;;;5083915;28;20205;-94
2022/09/19 10:50:30;;;;;;;6.10;1.97;;;24.30;54.20;;;;;;5100011;28;20252;-95
2022/09/19 10:53:03;;;;;;;5.43;2.07;;;24.40;54.30;;;;;;5099042;28;20206;-94
2022/09/19 10:55:33;;;;;;;6.47;1.83;;;24.50;53.70;;;;;;5103187;28;20218;-94
2022/09/19 10:58:06;;;;;;;5.50;1.80;;;24.60;54.20;;;;;;5092081;28;20203;-93
2022/09/19 11:00:48;;;;;;;5.60;1.93;;;24.70;53.80;;;;;;5080316;28;20575;-93
2022/09/19 11:03:29;;;;;;;5.37;2.03;;;24.80;52.40;;;;;;5090449;28;20222;-94
2022/09/19 11:06:12;;;;;;;7.50;2.37;;;24.80;51.70;;;;;;5106274;28;20198;-94
2022/09/19 11:08:45;;;;;;;8.20;2.33;;;24.90;51.70;;;;;;5100222;28;20317;-92
2022/09/19 11:11:36;;;;;;;4.70;2.00;;;25.00;52.70;;;;;;5100636;28;20202;-93
2022/09/19 11:14:31;;;;;;;7.50;2.20;;;25.00;51.70;;;;;;5103203;28;20195;-92
2022/09/19 11:17:37;;;;;;;3.17;1.40;;;25.10;51.40;;;;;;5098356;28;20207;-93
2022/09/19 11:20:23;;;;;;;5.50;1.87;;;25.20;50.90;;;;;;5095216;28;20575;-94
2022/09/19 11:23:13;;;;;;;7.80;2.37;;;25.20;50.80;;;;;;5102307;28;20230;-93
2022/09/19 11:25:53;;;;;;;4.10;1.53;;;25.30;50.00;;;;;;5094640;28;20203;-92
2022/09/19 11:28:34;;;;;;;5.97;2.13;;;25.20;49.80;;;;;;5103589;28;20201;-93
2022/09/19 11:31:12;;;;;;;6.73;2.13;;;25.20;49.90;;;;;;5108241;28;20226;-91
2022/09/19 11:33:46;;;;;;;6.07;2.23;;;25.10;49.60;;;;;;5102454;28;20199;-92
2022/09/19 11:36:28;;;;;;;4.30;1.37;;;25.00;50.10;;;;;;5101536;28;20267;-94
2022/09/19 11:39:06;;;;;;;4.47;1.60;;;24.90;49.20;;;;;;5100780;28;20742;-92
2022/09/19 11:41:47;;;;;;;7.57;2.37;;;24.80;49.40;;;;;;5098908;28;20210;-92
2022/09/19 11:44:43;;;;;;;4.83;1.73;;;24.60;49.50;;;;;;5097250;28;20213;-93
2022/09/19 11:47:30;;;;;;;5.33;1.70;;;24.50;48.60;;;;;;5105440;28;21054;-90
2022/09/19 11:50:29;;;;;;;3.23;1.10;;;24.40;48.40;;;;;;5086819;28;20246;-92
2022/09/19 11:53:18;;;;;;;3.47;1.60;;;24.30;48.50;;;;;;5082471;28;20207;-94
2022/09/19 11:55:55;;;;;;;1.73;1.00;;;24.30;49.10;;;;;;5082263;28;20233;-94
2022/09/19 11:58:31;;;;;;;4.20;1.67;;;24.20;49.60;;;;;;5081893;28;20199;-94
2022/09/19 12:01:15;;;;;;;4.17;1.63;;;24.20;49.90;;;;;;5080073;28;20206;-92
2022/09/19 12:03:56;;;;;;;5.03;1.47;;;24.20;49.20;;;;;;5081367;28;20230;-94
2022/09/19 12:06:50;;;;;;;6.93;2.67;;;24.20;48.60;;;;;;5081700;28;20210;-93
2022/09/19 12:09:36;;;;;;;6.87;2.33;;;24.10;48.40;;;;;;5081196;28;20885;-93
2022/09/19 12:12:21;;;;;;;5.93;1.43;;;24.10;49.40;;;;;;5081378;28;20231;-93
2022/09/19 12:14:55;;;;;;;5.67;2.00;;;24.10;49.10;;;;;;5081101;28;20214;-93
2022/09/19 12:17:27;;;;;;;5.47;2.10;;;24.20;49.60;;;;;;5079889;28;20202;-93
2022/09/19 12:19:59;;;;;;;8.33;2.10;;;24.20;49.50;;;;;;5101035;28;20263;-94
2022/09/19 12:22:31;;;;;;;7.00;1.97;;;24.20;48.90;;;;;;5100832;28;20195;-91
2022/09/19 12:25:18;;;;;;;4.53;1.60;;;24.30;48.80;;;;;;5101017;28;20199;-93
2022/09/19 12:27:52;;;;;;;6.97;2.20;;;24.30;47.80;;;;;;5100735;28;20222;-94
2022/09/19 12:30:23;;;;;;;8.10;2.67;;;24.40;48.40;;;;;;5101127;28;20240;-92
2022/09/19 12:33:02;;;;;;;6.23;1.73;;;24.40;48.60;;;;;;5101248;28;20643;-92
2022/09/19 12:35:35;;;;;;;6.80;1.70;;;24.40;48.60;;;;;;5098240;28;20234;-92
2022/09/19 12:38:19;;;;;;;4.60;1.47;;;24.40;48.40;;;;;;5102205;28;20229;-93
2022/09/19 12:40:58;;;;;;;6.63;1.90;;;24.40;48.50;;;;;;5100000;28;20252;-91
2022/09/19 12:43:38;;;;;;;4.03;1.57;;;24.50;48.50;;;;;;5093298;28;20210;-92
2022/09/19 12:46:36;;;;;;;6.67;2.10;;;24.50;48.10;;;;;;5083543;28;20207;-93
2022/09/19 12:49:14;;;;;;;6.40;2.03;;;24.60;48.30;;;;;;5096585;28;20623;-93
2022/09/19 12:51:53;;;;;;;5.17;1.57;;;24.80;47.80;;;;;;5099771;28;20210;-94
2022/09/19 12:54:27;;;;;;;5.53;1.50;;;24.80;47.30;;;;;;5098755;28;20217;-94
2022/09/19 12:57:06;;;;;;;6.03;1.80;;;24.90;48.00;;;;;;5100092;28;20194;-92
2022/09/19 12:59:37;;;;;;;3.60;1.60;;;24.90;47.00;;;;;;5101032;28;20652;-92
2022/09/19 13:02:18;;;;;;;3.23;1.37;;;25.00;47.40;;;;;;5101321;28;20203;-94
2022/09/19 13:04:59;;;;;;;3.27;1.50;;;25.00;46.70;;;;;;5101313;28;20203;-93
2022/09/19 13:07:32;;;;;;;5.93;1.60;;;25.00;46.90;;;;;;5101218;28;20218;-92
2022/09/19 13:10:14;;;;;;;5.43;1.70;;;25.10;46.80;;;;;;5103385;28;20194;-93
2022/09/19 13:12:49;;;;;;;4.80;2.10;;;25.10;46.80;;;;;;5100622;28;20210;-94
2022/09/19 13:15:25;;;;;;;4.50;1.50;;;25.10;46.70;;;;;;5094799;28;20231;-93
2022/09/19 13:23:32;;;;;;;3.67;1.67;;;25.20;46.80;;;;;;5085143;28;20674;-94
2022/09/19 13:26:24;;;;;;;5.43;1.83;;;25.20;46.30;;;;;;5101244;28;20668;-93
2022/09/19 13:28:55;;;;;;;5.00;1.70;;;25.20;45.10;;;;;;5078619;28;20211;-92
2022/09/19 13:31:27;;;;;;;4.67;1.57;;;25.10;45.90;;;;;;5077921;28;20234;-93
2022/09/19 13:33:57;;;;;;;4.70;2.00;;;25.10;45.30;;;;;;5078671;28;20191;-91
2022/09/19 13:36:46;;;;;;;5.03;2.00;;;25.00;46.20;;;;;;5084673;28;20205;-92
2022/09/19 13:39:50;;;;;;;5.97;2.20;;;25.10;45.00;;;;;;5077881;28;20199;-94
2022/09/19 13:42:27;;;;;;;8.23;2.17;;;25.10;45.00;;;;;;5079327;28;20948;-93
2022/09/19 13:45:01;;;;;;;5.77;2.40;;;25.20;44.70;;;;;;5074020;28;20318;-93
2022/09/19 13:47:54;;;;;;;3.80;1.50;;;25.20;45.30;;;;;;5078955;28;20195;-94
2022/09/19 13:50:25;;;;;;;6.60;2.27;;;25.30;44.40;;;;;;5097237;28;21067;-94